UCFM

Manas

Manas, Kyrgyzstan
TAF UCFM 141639Z 1418/1518 14003G08MPS 1500 BR FU SCT005 TEMPO 1418/1424 0300 FZFG VV001 TEMPO 1500/1506 0300 FZFG VV001 FM150600 26003G08MPS 6000 SCT050CB
Issued Valid From Valid To
Dec-14 @ 16:39 UTC
(6 hours ago)
Dec-14 @ 18:00 UTC
(5 hours ago)
Dec-15 @ 18:00 UTC
(in 19 hours)
Dec-14 @ 18:00 to Dec-15 @ 06:00
TAF UCFM 141639Z 1418/1518 14003G08MPS 1500 BR FU SCT005
Wind Visibility Clouds Conditions
140° at 6 knots
 Gusting to 16 knots
1,497 meters
  • Scattered at 500' AGL
  • Mist
  • Smoke
Temporary Dec-14 @ 18:00 to Dec-15 @ 00:00
TEMPO 1418/1424 0300 FZFG VV001
Visibility Clouds Conditions
306 meters
  • Vertical visibility at 100' AGL
  • Freezing
  • Fog
Temporary Dec-15 @ 00:00 to Dec-15 @ 06:00
TEMPO 1500/1506 0300 FZFG VV001
Visibility Clouds Conditions
306 meters
  • Vertical visibility at 100' AGL
  • Freezing
  • Fog
From Dec-15 @ 06:00 to Dec-15 @ 18:00
FM150600 26003G08MPS 6000 SCT050CB
Wind Visibility Clouds
260° at 6 knots
 Gusting to 16 knots
6,003 meters
  • Scattered at 5,000' AGL
TAF UCFM 141639Z 1418/1518 14003G08MPS 1500 BR FU SCT005 TEMPO 1418/1424 0300 FZFG VV001 TEMPO 1500/1506 0300 FZFG VV001 FM150600 26003G08MPS 6000 SCT050CB
Issued Dec-14 @ 16:39 UTC
(6 hours ago)
Valid From Dec-14 @ 18:00 UTC
(5 hours ago)
Valid To Dec-15 @ 18:00 UTC
(in 19 hours)
Dec-14 @ 18:00 - Dec-15 @ 06:00
Wind Visibility
140° at 6 knots
 Gusting to 16 knots
1,497 meters
Clouds
  • Scattered at 500' AGL
Conditions
  • Mist
  • Smoke
Temporary Dec-14 @ 18:00 - Dec-15 @ 00:00
Clouds
  • Vertical visibility at 100' AGL
Conditions
  • Freezing
  • Fog
Temporary Dec-15 @ 00:00 - Dec-15 @ 06:00
Clouds
  • Vertical visibility at 100' AGL
Conditions
  • Freezing
  • Fog
From Dec-15 @ 06:00 - Dec-15 @ 18:00
Wind Visibility
260° at 6 knots
 Gusting to 16 knots
6,003 meters
Clouds
  • Scattered at 5,000' AGL